Time;durP1;ratioP1;P1;durP2;ratioP2;P2;SDS_P1;SDS_P2;PMS_P1;PMS_P2;Temp;Humidity;BMP_temperature;BMP_pressure;BME280_temperature;BME280_humidity;BME280_pressure;Samples;Min_cycle;Max_cycle;Signal;HPM_P1;HPM_P2
2021/07/18 00:00:44;;;;;;;21.27;13.33;;;17.80;99.90;;;;;;5073075;28;20941;-83
2021/07/18 00:03:12;;;;;;;21.57;13.90;;;17.80;99.90;;;;;;5073111;28;20441;-83
2021/07/18 00:05:39;;;;;;;19.23;12.97;;;17.80;99.90;;;;;;5073109;28;20445;-82
2021/07/18 00:08:06;;;;;;;21.43;15.57;;;17.70;99.90;;;;;;5073087;28;20813;-83
2021/07/18 00:10:33;;;;;;;20.67;13.20;;;17.70;99.90;;;;;;5072822;28;20835;-83
2021/07/18 00:13:00;;;;;;;22.63;13.30;;;17.70;99.90;;;;;;5073069;28;20449;-84
2021/07/18 00:15:27;;;;;;;19.17;14.20;;;17.70;99.90;;;;;;5073864;28;20452;-85
2021/07/18 00:17:53;;;;;;;16.77;12.83;;;17.60;99.90;;;;;;5072695;28;20936;-82
2021/07/18 00:20:22;;;;;;;16.77;12.40;;;17.60;99.90;;;;;;5073143;28;20473;-82
2021/07/18 00:22:48;;;;;;;17.43;12.00;;;17.60;99.90;;;;;;5072951;28;20448;-82
2021/07/18 00:25:15;;;;;;;17.17;14.27;;;17.60;99.90;;;;;;5072887;28;20452;-82
2021/07/18 00:27:42;;;;;;;20.17;13.67;;;17.60;99.90;;;;;;5072890;28;20813;-82
2021/07/18 00:30:11;;;;;;;19.73;14.03;;;17.60;99.90;;;;;;5076133;28;20499;-82
2021/07/18 00:32:37;;;;;;;20.40;14.10;;;17.50;99.90;;;;;;5076604;28;20460;-82
2021/07/18 00:35:06;;;;;;;18.93;13.07;;;17.50;99.90;;;;;;5076193;28;20820;-82
2021/07/18 00:37:34;;;;;;;17.77;12.10;;;17.50;99.90;;;;;;5076218;28;20453;-83
2021/07/18 00:40:00;;;;;;;17.83;12.47;;;17.50;99.90;;;;;;5076712;28;20495;-82
2021/07/18 00:42:27;;;;;;;16.50;11.90;;;17.40;99.90;;;;;;5076068;28;20822;-83
2021/07/18 00:44:54;;;;;;;17.70;12.10;;;17.40;99.90;;;;;;5076390;28;20445;-83
2021/07/18 00:47:22;;;;;;;15.43;11.57;;;17.40;99.90;;;;;;5076363;28;20834;-83
2021/07/18 00:49:49;;;;;;;18.13;13.73;;;17.40;99.90;;;;;;5075927;28;20995;-83
2021/07/18 00:52:16;;;;;;;19.93;12.50;;;17.30;99.90;;;;;;5076415;28;20487;-82
2021/07/18 00:54:44;;;;;;;17.53;11.73;;;17.30;99.90;;;;;;5075945;28;20966;-85
2021/07/18 00:57:11;;;;;;;17.47;12.40;;;17.20;99.90;;;;;;5075913;28;20460;-85
2021/07/18 00:59:39;;;;;;;17.23;12.03;;;17.20;99.90;;;;;;5076159;28;20896;-85
2021/07/18 01:02:06;;;;;;;15.50;11.93;;;17.20;99.90;;;;;;5076195;28;20437;-85
2021/07/18 01:04:33;;;;;;;14.40;11.27;;;17.20;99.90;;;;;;5076435;28;20453;-85
2021/07/18 01:07:00;;;;;;;17.03;11.40;;;17.10;99.90;;;;;;5076031;28;20451;-84
2021/07/18 01:09:27;;;;;;;13.40;11.20;;;17.10;99.90;;;;;;5075864;28;20828;-85
2021/07/18 01:11:55;;;;;;;16.10;10.90;;;17.10;99.90;;;;;;5075880;28;20479;-84
2021/07/18 01:14:22;;;;;;;18.00;11.47;;;17.10;99.90;;;;;;5075918;28;20444;-85
2021/07/18 01:16:49;;;;;;;14.23;10.00;;;17.10;99.90;;;;;;5075532;28;20785;-85
2021/07/18 01:19:19;;;;;;;17.17;11.27;;;17.00;99.90;;;;;;5075782;28;20465;-85
2021/07/18 01:21:52;;;;;;;11.53;9.77;;;17.00;99.90;;;;;;5075806;28;20456;-85
2021/07/18 01:24:19;;;;;;;12.80;9.97;;;16.90;99.90;;;;;;5075756;28;20430;-83
2021/07/18 01:26:46;;;;;;;12.60;9.47;;;16.90;99.90;;;;;;5075592;28;20452;-83
2021/07/18 01:29:13;;;;;;;14.83;9.87;;;16.90;99.90;;;;;;5075263;28;20484;-82
2021/07/18 01:31:40;;;;;;;12.27;8.80;;;16.90;99.90;;;;;;5075514;28;20855;-82
2021/07/18 01:34:07;;;;;;;11.20;9.20;;;16.90;99.90;;;;;;5075156;28;20820;-81
2021/07/18 01:36:35;;;;;;;12.33;8.50;;;16.90;99.90;;;;;;5075451;28;20448;-82
2021/07/18 01:39:05;;;;;;;9.73;7.80;;;16.90;99.90;;;;;;5074579;28;20472;-82
2021/07/18 01:41:32;;;;;;;9.63;8.13;;;16.80;99.90;;;;;;5075401;28;20433;-82
2021/07/18 01:43:58;;;;;;;9.90;8.27;;;16.80;99.90;;;;;;5075342;28;20444;-81
2021/07/18 01:46:26;;;;;;;10.10;8.10;;;16.80;99.90;;;;;;5075246;28;20452;-82
2021/07/18 01:48:54;;;;;;;12.77;7.83;;;16.70;99.90;;;;;;5075398;28;20472;-82
2021/07/18 01:51:22;;;;;;;9.53;6.73;;;16.70;99.90;;;;;;5075120;28;20481;-82
2021/07/18 01:53:51;;;;;;;14.20;8.57;;;16.60;99.90;;;;;;5075336;28;20461;-83
2021/07/18 01:56:20;;;;;;;11.27;7.57;;;16.60;99.90;;;;;;5075102;28;20498;-83
2021/07/18 01:58:47;;;;;;;9.77;6.90;;;16.60;99.90;;;;;;5074917;28;20471;-83
2021/07/18 02:01:14;;;;;;;11.37;7.90;;;16.50;99.90;;;;;;5074695;28;20501;-85
2021/07/18 02:03:41;;;;;;;9.47;7.17;;;16.50;99.90;;;;;;5074955;28;20444;-85
2021/07/18 02:06:08;;;;;;;9.37;7.20;;;16.50;99.90;;;;;;5074881;28;20453;-85
2021/07/18 02:08:35;;;;;;;10.13;7.20;;;16.50;99.90;;;;;;5074845;28;20469;-85
2021/07/18 02:11:02;;;;;;;9.57;7.73;;;16.40;99.90;;;;;;5074726;28;20484;-85
2021/07/18 02:13:30;;;;;;;8.57;7.30;;;16.40;99.90;;;;;;5074450;28;20940;-85
2021/07/18 02:15:58;;;;;;;11.60;7.37;;;16.40;99.90;;;;;;5074692;28;20452;-85
2021/07/18 02:18:25;;;;;;;10.00;7.90;;;16.40;99.90;;;;;;5074611;28;20449;-83
2021/07/18 02:20:54;;;;;;;10.50;7.27;;;16.40;99.90;;;;;;5074540;28;20514;-83
2021/07/18 02:23:21;;;;;;;7.63;6.73;;;16.30;99.90;;;;;;5074878;28;20441;-86
2021/07/18 02:25:48;;;;;;;9.13;7.67;;;16.30;99.90;;;;;;5074557;28;20543;-85
2021/07/18 02:28:14;;;;;;;13.33;8.00;;;16.30;99.90;;;;;;5074328;28;20453;-86
2021/07/18 02:30:43;;;;;;;9.93;8.40;;;16.20;99.90;;;;;;5073907;28;20476;-85
2021/07/18 02:33:10;;;;;;;10.27;7.70;;;16.20;99.90;;;;;;5074377;28;20449;-85
2021/07/18 02:35:36;;;;;;;8.83;7.10;;;16.20;99.90;;;;;;5074277;28;20452;-85
2021/07/18 02:38:03;;;;;;;13.33;8.90;;;16.10;99.90;;;;;;5073981;28;20452;-85
2021/07/18 02:40:30;;;;;;;12.93;7.57;;;16.10;99.90;;;;;;5074141;28;20468;-85
2021/07/18 02:42:57;;;;;;;9.13;7.80;;;16.10;99.90;;;;;;5074217;28;20453;-85
2021/07/18 02:45:25;;;;;;;13.53;8.83;;;16.10;99.90;;;;;;5074130;28;20449;-83
2021/07/18 02:47:53;;;;;;;11.07;7.70;;;16.10;99.90;;;;;;5074900;28;20453;-83
2021/07/18 02:50:22;;;;;;;12.20;8.30;;;16.00;99.90;;;;;;5073836;28;20476;-83
2021/07/18 02:52:49;;;;;;;12.27;8.30;;;16.00;99.90;;;;;;5073332;28;20819;-83
2021/07/18 02:55:16;;;;;;;12.90;8.83;;;16.00;99.90;;;;;;5073582;28;20444;-82
2021/07/18 02:57:43;;;;;;;16.50;7.80;;;16.00;99.90;;;;;;5073900;28;20451;-82
2021/07/18 03:00:12;;;;;;;11.60;8.23;;;16.00;99.90;;;;;;5073473;28;20999;-83
2021/07/18 03:02:39;;;;;;;8.83;7.60;;;15.90;99.90;;;;;;5073801;28;20449;-83
2021/07/18 03:05:10;;;;;;;9.43;7.73;;;15.90;99.90;;;;;;5073754;28;20445;-83
2021/07/18 03:07:37;;;;;;;10.27;8.47;;;15.90;99.90;;;;;;5073767;28;20440;-82
2021/07/18 03:10:04;;;;;;;13.50;8.07;;;15.90;99.90;;;;;;5073619;28;20469;-82
2021/07/18 03:12:31;;;;;;;11.90;8.00;;;15.90;99.90;;;;;;5073575;28;20480;-82
2021/07/18 03:14:58;;;;;;;9.50;7.90;;;15.80;99.90;;;;;;5073614;28;20445;-82
2021/07/18 03:17:25;;;;;;;11.13;8.00;;;15.80;99.90;;;;;;5074147;28;20459;-82
2021/07/18 03:19:52;;;;;;;10.10;7.50;;;15.80;99.90;;;;;;5073484;28;20468;-82
2021/07/18 03:22:21;;;;;;;10.33;8.10;;;15.80;99.90;;;;;;5073552;28;20787;-82
2021/07/18 03:24:47;;;;;;;8.57;7.30;;;15.70;99.90;;;;;;5073490;28;20455;-82
2021/07/18 03:27:15;;;;;;;11.30;7.40;;;15.70;99.90;;;;;;5073550;28;20452;-86
2021/07/18 03:29:41;;;;;;;8.67;7.30;;;15.70;99.90;;;;;;5073400;28;20477;-86
2021/07/18 03:32:09;;;;;;;9.50;6.90;;;15.70;99.90;;;;;;5073699;28;20849;-86
2021/07/18 03:34:36;;;;;;;12.20;7.37;;;15.60;99.90;;;;;;5073510;28;20441;-86
2021/07/18 03:37:03;;;;;;;11.83;8.10;;;15.60;99.90;;;;;;5073480;28;20444;-86
2021/07/18 03:39:31;;;;;;;10.93;7.30;;;15.60;99.90;;;;;;5073264;28;20479;-85
2021/07/18 03:41:57;;;;;;;11.60;6.60;;;15.50;99.90;;;;;;5073402;28;20948;-85
2021/07/18 03:44:24;;;;;;;7.23;6.40;;;15.50;99.90;;;;;;5073103;28;20456;-82
2021/07/18 03:46:51;;;;;;;7.40;6.70;;;15.40;99.90;;;;;;5074017;28;20458;-82
2021/07/18 03:49:18;;;;;;;6.83;5.93;;;15.40;99.90;;;;;;5073222;28;20469;-83
2021/07/18 03:51:45;;;;;;;7.40;6.07;;;15.40;99.90;;;;;;5072884;28;20484;-83
2021/07/18 03:54:11;;;;;;;9.60;6.80;;;15.40;99.90;;;;;;5073202;28;20452;-83
2021/07/18 03:56:39;;;;;;;11.37;6.67;;;15.40;99.90;;;;;;5072902;28;20948;-83
2021/07/18 03:59:06;;;;;;;9.97;6.40;;;15.50;99.90;;;;;;5072767;28;20473;-83
2021/07/18 04:01:33;;;;;;;8.00;6.40;;;15.40;99.90;;;;;;5073182;28;20440;-83
2021/07/18 04:03:59;;;;;;;12.80;6.87;;;15.50;99.90;;;;;;5076162;28;20806;-82
2021/07/18 04:06:26;;;;;;;10.50;7.10;;;15.50;99.90;;;;;;5077190;28;20445;-83
2021/07/18 04:08:53;;;;;;;8.53;6.10;;;15.50;99.90;;;;;;5077108;28;20472;-83
2021/07/18 04:11:20;;;;;;;7.90;5.93;;;15.50;99.90;;;;;;5077202;28;20488;-82
2021/07/18 04:13:48;;;;;;;7.60;6.90;;;15.50;99.90;;;;;;5077020;28;20506;-82
2021/07/18 04:16:14;;;;;;;8.43;6.77;;;15.50;99.90;;;;;;5076985;28;20456;-82
2021/07/18 04:18:41;;;;;;;7.27;6.47;;;15.50;99.90;;;;;;5076559;28;20472;-82
2021/07/18 04:21:08;;;;;;;7.43;6.27;;;15.60;99.90;;;;;;5077152;28;20437;-82
2021/07/18 04:23:35;;;;;;;11.03;6.63;;;15.60;99.90;;;;;;5076847;28;20445;-82
2021/07/18 04:26:01;;;;;;;7.80;6.97;;;15.60;99.90;;;;;;5076764;28;20467;-82
2021/07/18 04:28:28;;;;;;;7.70;6.50;;;15.60;99.90;;;;;;5076446;28;20809;-82
2021/07/18 04:30:56;;;;;;;9.20;6.93;;;15.70;99.90;;;;;;5076735;28;20455;-82
2021/07/18 04:33:23;;;;;;;8.20;6.33;;;15.70;99.90;;;;;;5076400;28;20487;-82
2021/07/18 04:35:50;;;;;;;9.37;6.33;;;15.70;99.90;;;;;;5076524;28;20964;-82
2021/07/18 04:38:16;;;;;;;7.93;7.13;;;15.70;99.90;;;;;;5076507;28;20456;-82
2021/07/18 04:40:43;;;;;;;11.00;7.63;;;15.80;99.90;;;;;;5076209;28;20805;-83
2021/07/18 04:43:10;;;;;;;12.77;6.17;;;15.80;99.90;;;;;;5076466;28;20441;-83
2021/07/18 04:45:37;;;;;;;8.00;6.90;;;15.90;99.90;;;;;;5076422;28;20449;-83
2021/07/18 04:48:06;;;;;;;7.73;5.73;;;15.90;99.90;;;;;;5076450;28;20448;-85
2021/07/18 04:50:33;;;;;;;11.13;7.13;;;15.90;99.90;;;;;;5076142;28;20826;-85
2021/07/18 04:53:00;;;;;;;7.63;6.27;;;16.00;99.90;;;;;;5076253;28;20481;-85
2021/07/18 04:55:27;;;;;;;9.67;7.87;;;16.00;99.90;;;;;;5076259;28;20809;-85
2021/07/18 04:57:54;;;;;;;12.23;7.13;;;16.00;99.90;;;;;;5076295;28;20448;-85
2021/07/18 05:00:22;;;;;;;10.53;6.60;;;16.10;99.90;;;;;;5075771;28;20468;-83
2021/07/18 05:02:50;;;;;;;9.63;6.40;;;16.10;99.90;;;;;;5076112;28;20444;-83
2021/07/18 05:05:19;;;;;;;9.03;6.00;;;16.10;99.90;;;;;;5075752;28;20948;-83
2021/07/18 05:07:50;;;;;;;8.30;7.33;;;16.20;99.90;;;;;;5075935;28;20887;-83
2021/07/18 05:10:18;;;;;;;14.97;7.10;;;16.20;99.90;;;;;;5075901;28;20465;-83
2021/07/18 05:12:45;;;;;;;7.40;6.10;;;16.20;99.90;;;;;;5075864;28;20492;-83
2021/07/18 05:15:12;;;;;;;8.00;6.30;;;16.20;99.90;;;;;;5074935;28;20967;-83
2021/07/18 05:17:40;;;;;;;6.30;5.70;;;16.30;99.90;;;;;;5075846;28;20453;-83
2021/07/18 05:20:07;;;;;;;5.90;5.30;;;16.30;99.90;;;;;;5075713;28;20460;-83
2021/07/18 05:22:36;;;;;;;8.90;6.40;;;16.40;99.90;;;;;;5075998;28;20441;-83
2021/07/18 05:25:05;;;;;;;8.57;5.83;;;16.40;99.90;;;;;;5075689;28;20441;-83
2021/07/18 05:27:32;;;;;;;9.43;5.80;;;16.40;99.90;;;;;;5075927;28;20485;-83
2021/07/18 05:29:58;;;;;;;5.70;4.97;;;16.50;99.90;;;;;;5075117;28;20493;-83
2021/07/18 05:32:25;;;;;;;14.40;6.80;;;16.50;99.90;;;;;;5075188;28;20485;-83
2021/07/18 05:34:52;;;;;;;6.73;4.93;;;16.60;99.90;;;;;;5075503;28;20445;-83
2021/07/18 05:37:19;;;;;;;5.20;4.53;;;16.60;99.90;;;;;;5075437;28;20460;-82
2021/07/18 05:39:47;;;;;;;4.63;4.20;;;16.70;99.90;;;;;;5075055;28;20846;-83
2021/07/18 05:42:14;;;;;;;6.30;4.97;;;16.70;99.90;;;;;;5075391;28;20543;-83
2021/07/18 05:44:42;;;;;;;5.90;4.73;;;16.70;99.90;;;;;;5075037;28;20948;-85
2021/07/18 05:47:09;;;;;;;4.80;4.30;;;16.80;99.90;;;;;;5075376;28;20453;-85
2021/07/18 05:49:37;;;;;;;7.40;4.07;;;16.90;99.90;;;;;;5074966;28;20473;-85
2021/07/18 05:52:04;;;;;;;5.10;4.47;;;16.90;99.90;;;;;;5075181;28;20484;-86
2021/07/18 05:54:32;;;;;;;6.63;4.20;;;17.00;99.90;;;;;;5075253;28;20804;-85
2021/07/18 05:57:00;;;;;;;4.63;4.13;;;17.10;99.90;;;;;;5074832;28;20975;-85
2021/07/18 05:59:26;;;;;;;4.40;3.90;;;17.10;99.90;;;;;;5074777;28;21007;-85
2021/07/18 06:01:53;;;;;;;5.83;3.77;;;17.20;99.90;;;;;;5075752;28;20444;-82
2021/07/18 06:04:20;;;;;;;4.03;3.50;;;17.30;99.90;;;;;;5074627;28;20975;-82
2021/07/18 06:06:47;;;;;;;4.20;3.27;;;17.40;99.90;;;;;;5075120;28;20456;-82
2021/07/18 06:09:13;;;;;;;7.37;2.90;;;17.50;99.90;;;;;;5074747;28;20492;-82
2021/07/18 06:11:40;;;;;;;3.10;2.87;;;17.60;99.90;;;;;;5074722;28;20449;-82
2021/07/18 06:14:08;;;;;;;2.60;2.40;;;17.60;99.90;;;;;;5074690;28;20444;-83
2021/07/18 06:16:35;;;;;;;3.00;2.30;;;17.80;99.90;;;;;;5074427;28;20433;-83
2021/07/18 06:19:02;;;;;;;2.67;2.50;;;18.00;99.90;;;;;;5074544;28;20476;-83
2021/07/18 06:21:28;;;;;;;2.83;2.63;;;18.20;99.90;;;;;;5074594;28;20467;-83
2021/07/18 06:23:55;;;;;;;5.17;2.53;;;18.20;99.90;;;;;;5074707;28;20445;-83
2021/07/18 06:26:22;;;;;;;2.57;2.37;;;18.30;99.90;;;;;;5074470;28;20448;-86
2021/07/18 06:28:48;;;;;;;4.53;2.27;;;18.40;99.90;;;;;;5074265;28;20488;-86
2021/07/18 06:31:17;;;;;;;3.97;3.00;;;18.50;99.90;;;;;;5074344;28;20963;-85
2021/07/18 06:33:44;;;;;;;2.20;2.00;;;18.60;99.90;;;;;;5074756;28;20492;-86
2021/07/18 06:36:11;;;;;;;5.80;2.27;;;18.80;99.90;;;;;;5074405;28;20452;-86
2021/07/18 06:38:39;;;;;;;2.30;1.43;;;19.00;99.90;;;;;;5074570;28;20453;-86
2021/07/18 06:41:06;;;;;;;5.57;1.90;;;19.20;99.90;;;;;;5074396;28;20548;-85
2021/07/18 06:43:35;;;;;;;2.17;1.90;;;19.40;99.90;;;;;;5074377;28;20441;-86
2021/07/18 06:46:02;;;;;;;2.00;1.77;;;19.60;99.90;;;;;;5074435;28;20963;-86
2021/07/18 06:48:30;;;;;;;4.63;1.83;;;19.80;99.90;;;;;;5074450;28;20445;-86
2021/07/18 06:50:57;;;;;;;6.37;2.27;;;19.80;99.90;;;;;;5074248;28;20445;-87
2021/07/18 06:53:24;;;;;;;2.03;1.77;;;19.90;99.90;;;;;;5074965;28;20480;-87
2021/07/18 06:55:51;;;;;;;1.77;1.63;;;20.00;99.90;;;;;;5073843;28;20448;-86
2021/07/18 06:58:18;;;;;;;2.10;1.80;;;20.10;99.90;;;;;;5073903;28;20440;-85
2021/07/18 07:00:45;;;;;;;2.10;1.73;;;20.20;99.90;;;;;;5074027;28;20456;-87
2021/07/18 07:03:12;;;;;;;3.20;1.30;;;20.30;99.90;;;;;;5073811;28;20459;-86
2021/07/18 07:05:41;;;;;;;1.70;1.60;;;20.40;99.90;;;;;;5074006;28;20452;-86
2021/07/18 07:08:08;;;;;;;2.40;1.87;;;20.50;99.90;;;;;;5074160;28;20444;-87
2021/07/18 07:10:40;;;;;;;1.83;1.73;;;20.50;99.90;;;;;;5073552;28;20475;-86
2021/07/18 07:13:25;;;;;;;1.70;1.60;;;20.60;99.90;;;;;;5073696;28;20525;-87
2021/07/18 07:15:52;;;;;;;3.10;1.70;;;20.70;99.90;;;;;;5073863;28;20482;-87
2021/07/18 07:21:08;;;;;;;1.97;1.67;;;20.80;99.90;;;;;;5073611;28;20535;-86
2021/07/18 07:23:35;;;;;;;3.63;1.53;;;21.00;99.90;;;;;;5074385;28;20440;-86
2021/07/18 07:26:13;;;;;;;2.40;2.00;;;21.10;99.90;;;;;;5073562;28;20452;-86
2021/07/18 07:29:12;;;;;;;2.67;1.70;;;21.00;99.90;;;;;;5073412;28;20480;-87
2021/07/18 07:31:41;;;;;;;1.87;1.60;;;21.10;99.90;;;;;;5073364;28;20505;-87
2021/07/18 07:34:14;;;;;;;4.20;1.40;;;21.30;99.90;;;;;;5073742;28;20480;-87
2021/07/18 07:40:16;;;;;;;2.03;1.93;;;21.20;99.90;;;;;;5041435;28;20488;-87
2021/07/18 07:43:48;;;;;;;2.20;1.70;;;21.20;99.90;;;;;;5074058;28;20447;-87
2021/07/18 07:49:28;;;;;;;3.43;3.13;;;21.60;99.90;;;;;;5072863;28;20476;-86
2021/07/18 07:55:28;;;;;;;1.90;1.80;;;22.00;99.90;;;;;;5040162;28;20425;-83
2021/07/18 08:08:21;;;;;;;1.85;1.70;;;23.50;99.90;;;;;;5037412;28;20292;-83
2021/07/18 08:14:36;;;;;;;3.75;2.22;;;24.80;99.90;;;;;;5050588;28;20305;-84
2021/07/18 08:17:04;;;;;;;3.92;2.25;;;25.10;99.90;;;;;;5067584;28;20197;-84
2021/07/18 08:19:31;;;;;;;1.67;1.58;;;25.40;99.90;;;;;;5073008;28;20225;-83
2021/07/18 08:21:58;;;;;;;2.67;1.77;;;25.40;99.90;;;;;;5072760;28;20202;-83
2021/07/18 08:24:24;;;;;;;2.22;2.00;;;25.40;99.90;;;;;;5072907;28;20195;-84
2021/07/18 08:26:51;;;;;;;4.07;1.83;;;25.40;99.90;;;;;;5072910;28;20211;-84
2021/07/18 08:29:18;;;;;;;1.70;1.60;;;25.40;99.90;;;;;;5072755;28;20241;-84
2021/07/18 08:31:47;;;;;;;2.75;1.90;;;25.30;99.90;;;;;;5073205;28;20255;-83
2021/07/18 08:34:20;;;;;;;2.20;2.00;;;25.10;99.90;;;;;;5072514;28;20259;-83
2021/07/18 08:36:48;;;;;;;2.38;1.73;;;24.90;99.90;;;;;;5071401;28;20206;-83
2021/07/18 08:39:16;;;;;;;4.10;1.58;;;24.90;99.90;;;;;;5072717;28;20307;-83
2021/07/18 08:41:44;;;;;;;2.35;2.05;;;25.00;99.90;;;;;;5072758;28;20267;-83
2021/07/18 08:44:12;;;;;;;2.20;1.98;;;25.00;99.90;;;;;;5072950;28;20205;-82
2021/07/18 08:46:39;;;;;;;3.92;1.70;;;25.00;99.90;;;;;;5072730;28;20206;-83
2021/07/18 08:51:57;;;;;;;4.60;1.85;;;24.50;99.90;;;;;;5076509;28;20198;-82
2021/07/18 08:54:46;;;;;;;3.25;2.00;;;24.60;99.90;;;;;;5076095;28;20225;-84
2021/07/18 08:57:13;;;;;;;3.33;2.42;;;24.50;99.90;;;;;;5075283;28;20221;-83
2021/07/18 08:59:41;;;;;;;2.25;2.15;;;24.30;99.90;;;;;;5076064;28;20222;-83
2021/07/18 09:02:08;;;;;;;1.80;1.70;;;24.40;99.90;;;;;;5075986;28;20224;-83
2021/07/18 09:04:36;;;;;;;2.53;1.80;;;24.40;99.90;;;;;;5076303;28;20209;-82
2021/07/18 09:07:06;;;;;;;2.10;1.90;;;24.40;99.90;;;;;;5076269;28;20210;-83
2021/07/18 09:09:33;;;;;;;3.75;2.22;;;24.60;99.90;;;;;;5076299;28;20309;-83
2021/07/18 09:12:02;;;;;;;1.73;1.63;;;24.60;99.90;;;;;;5075962;28;20197;-82
2021/07/18 09:14:32;;;;;;;2.17;1.90;;;24.60;99.90;;;;;;5076146;28;20222;-83
2021/07/18 09:16:59;;;;;;;1.92;1.83;;;24.70;99.90;;;;;;5076844;28;20206;-82
2021/07/18 09:20:12;;;;;;;4.47;2.08;;;24.80;99.90;;;;;;5075978;28;20253;-83
2021/07/18 09:25:50;;;;;;;1.65;1.55;;;24.80;99.90;;;;;;5075672;28;20198;-83
2021/07/18 09:28:18;;;;;;;1.85;1.75;;;25.00;99.90;;;;;;5075551;28;20198;-83
2021/07/18 09:30:47;;;;;;;2.40;1.98;;;25.20;99.90;;;;;;5075928;28;20230;-83
2021/07/18 09:33:35;;;;;;;2.25;1.73;;;25.40;99.90;;;;;;5075962;28;20222;-83
2021/07/18 09:36:17;;;;;;;1.88;1.70;;;25.50;99.90;;;;;;5075546;28;20186;-83
2021/07/18 09:38:45;;;;;;;5.55;2.08;;;25.50;99.90;;;;;;5075403;28;20271;-83
2021/07/18 09:41:19;;;;;;;2.08;1.60;;;25.50;99.90;;;;;;5075516;28;20202;-83
2021/07/18 09:47:24;;;;;;;1.85;1.75;;;25.50;99.90;;;;;;5080565;28;20236;-83
2021/07/18 09:50:05;;;;;;;2.90;1.70;;;25.50;99.90;;;;;;5074870;28;20226;-83
2021/07/18 09:52:47;;;;;;;4.20;2.55;;;25.60;99.90;;;;;;5075099;28;20182;-83
2021/07/18 09:55:24;;;;;;;3.38;2.13;;;25.60;99.90;;;;;;5075749;28;20182;-85
2021/07/18 09:57:52;;;;;;;1.95;1.85;;;25.60;99.90;;;;;;5075155;28;20202;-85
2021/07/18 10:00:22;;;;;;;2.75;2.00;;;25.70;99.90;;;;;;5074474;28;20222;-85
2021/07/18 10:02:51;;;;;;;3.03;1.83;;;25.70;99.90;;;;;;5075077;28;20213;-85
2021/07/18 10:05:27;;;;;;;2.72;2.45;;;25.70;99.90;;;;;;5074989;28;20206;-85
2021/07/18 10:08:04;;;;;;;1.70;1.50;;;25.80;99.90;;;;;;5075646;28;20536;-85
2021/07/18 10:10:33;;;;;;;1.83;1.73;;;26.00;99.90;;;;;;5074847;28;20229;-85
2021/07/18 10:13:01;;;;;;;2.20;1.83;;;26.10;99.90;;;;;;5074701;28;20202;-85
2021/07/18 10:15:40;;;;;;;3.67;1.77;;;26.20;99.90;;;;;;5074562;28;20684;-85
2021/07/18 10:18:07;;;;;;;2.70;1.52;;;26.30;99.90;;;;;;5075128;28;20206;-83
2021/07/18 10:20:35;;;;;;;1.98;1.67;;;26.50;99.90;;;;;;5074101;28;20704;-82
2021/07/18 10:23:02;;;;;;;2.47;1.77;;;26.70;99.90;;;;;;5074266;28;20202;-83
2021/07/18 10:25:31;;;;;;;2.53;1.80;;;26.80;99.90;;;;;;5074535;28;20198;-83
2021/07/18 10:27:59;;;;;;;2.00;1.80;;;27.00;99.90;;;;;;5074140;28;20567;-83
2021/07/18 10:30:28;;;;;;;2.03;1.90;;;27.10;99.90;;;;;;5073919;28;20241;-83
2021/07/18 10:32:56;;;;;;;1.80;1.58;;;27.10;99.90;;;;;;5074294;28;20202;-84
2021/07/18 10:35:23;;;;;;;2.00;1.77;;;27.30;99.90;;;;;;5074117;28;20194;-84
2021/07/18 10:37:50;;;;;;;2.80;2.05;;;27.50;99.50;;;;;;5074827;28;20208;-83
2021/07/18 10:40:21;;;;;;;3.60;1.50;;;27.60;99.10;;;;;;5074489;28;20225;-83
2021/07/18 10:42:53;;;;;;;2.92;2.20;;;27.70;97.50;;;;;;5074133;28;20555;-83
2021/07/18 10:45:22;;;;;;;4.13;1.85;;;27.80;97.70;;;;;;5074233;28;20723;-83
2021/07/18 10:48:03;;;;;;;2.00;1.60;;;27.90;98.70;;;;;;5073720;28;20676;-83
2021/07/18 10:50:50;;;;;;;2.35;2.00;;;27.90;96.80;;;;;;5073941;28;20230;-83
2021/07/18 10:53:19;;;;;;;1.30;1.20;;;27.50;95.70;;;;;;5073894;28;20236;-83
2021/07/18 10:55:48;;;;;;;2.22;2.00;;;27.40;95.70;;;;;;5073620;28;20206;-83
2021/07/18 10:58:51;;;;;;;3.38;1.67;;;27.30;94.30;;;;;;5074257;28;20209;-83
2021/07/18 11:01:37;;;;;;;2.13;1.90;;;27.10;95.40;;;;;;5073869;28;20186;-83
2021/07/18 11:04:06;;;;;;;3.13;2.25;;;26.90;96.50;;;;;;5073753;28;20194;-84
2021/07/18 11:06:34;;;;;;;2.15;2.05;;;26.90;95.30;;;;;;5073697;28;20202;-85
2021/07/18 11:09:17;;;;;;;4.28;1.88;;;26.90;96.50;;;;;;5073579;28;20229;-84
2021/07/18 11:11:46;;;;;;;4.07;2.03;;;27.10;94.80;;;;;;5073322;28;20277;-85
2021/07/18 11:14:24;;;;;;;1.92;1.83;;;27.10;95.40;;;;;;5073090;28;20214;-85
2021/07/18 11:16:52;;;;;;;3.53;1.85;;;27.10;95.30;;;;;;5073522;28;20205;-85
2021/07/18 11:19:52;;;;;;;1.77;1.67;;;26.90;97.70;;;;;;5073435;28;20229;-84
2021/07/18 11:22:19;;;;;;;2.25;2.05;;;26.70;97.70;;;;;;5073173;28;20677;-84
2021/07/18 11:24:47;;;;;;;4.10;1.70;;;26.50;96.40;;;;;;5073410;28;20670;-84
2021/07/18 11:27:24;;;;;;;1.60;1.50;;;26.40;95.50;;;;;;5073503;28;20205;-85
2021/07/18 11:29:53;;;;;;;1.60;1.50;;;26.30;97.10;;;;;;5073048;28;20242;-84
2021/07/18 11:32:23;;;;;;;5.93;2.40;;;26.20;95.80;;;;;;5073499;28;20183;-84
2021/07/18 11:34:50;;;;;;;3.22;1.98;;;26.00;95.90;;;;;;5073052;28;20221;-84
2021/07/18 11:37:17;;;;;;;3.63;1.95;;;25.80;96.10;;;;;;5073245;28;20209;-85
2021/07/18 11:39:44;;;;;;;1.67;1.58;;;25.60;94.40;;;;;;5073412;28;20222;-85
2021/07/18 11:42:13;;;;;;;3.58;1.65;;;25.50;95.20;;;;;;5074200;28;20228;-86
2021/07/18 11:44:42;;;;;;;3.45;1.90;;;25.50;96.10;;;;;;5073474;28;20201;-84
2021/07/18 11:47:12;;;;;;;2.78;1.38;;;25.40;97.30;;;;;;5073959;28;20198;-85
2021/07/18 11:49:45;;;;;;;1.58;1.48;;;25.40;96.20;;;;;;5073200;28;20225;-86
2021/07/18 11:52:13;;;;;;;2.63;2.08;;;25.50;95.60;;;;;;5073509;28;20194;-85
2021/07/18 11:54:41;;;;;;;1.95;1.85;;;25.50;95.20;;;;;;5073212;28;20229;-83
2021/07/18 11:57:11;;;;;;;2.00;1.70;;;25.50;94.60;;;;;;5072889;28;20573;-84
2021/07/18 11:59:38;;;;;;;2.92;2.28;;;25.50;95.10;;;;;;5073243;28;20229;-86
2021/07/18 12:02:06;;;;;;;2.28;1.75;;;25.40;94.60;;;;;;5073278;28;20202;-86
2021/07/18 12:04:35;;;;;;;3.38;2.33;;;25.40;95.60;;;;;;5073152;28;20206;-85
2021/07/18 12:07:03;;;;;;;1.70;1.60;;;25.30;98.10;;;;;;5073274;28;20228;-84
2021/07/18 12:09:37;;;;;;;4.03;1.58;;;25.30;96.00;;;;;;5072899;28;20622;-86
2021/07/18 12:12:05;;;;;;;1.88;1.77;;;25.40;94.50;;;;;;5073116;28;20609;-85
2021/07/18 12:14:34;;;;;;;2.42;1.98;;;25.40;92.50;;;;;;5073099;28;20233;-86
2021/07/18 12:17:03;;;;;;;2.60;2.25;;;25.30;94.00;;;;;;5073258;28;20202;-86
2021/07/18 12:19:31;;;;;;;2.17;1.98;;;25.30;95.00;;;;;;5072776;28;20211;-86
2021/07/18 12:22:01;;;;;;;3.50;2.60;;;25.20;95.40;;;;;;5073021;28;20198;-84
2021/07/18 12:24:29;;;;;;;2.88;2.67;;;25.20;96.50;;;;;;5075341;28;20213;-84
2021/07/18 12:27:08;;;;;;;3.25;2.90;;;25.20;95.90;;;;;;5076938;28;20555;-82
2021/07/18 12:29:38;;;;;;;3.97;3.13;;;25.10;93.80;;;;;;5076310;28;20225;-85
2021/07/18 12:32:06;;;;;;;3.65;3.33;;;25.10;94.40;;;;;;5077041;28;20208;-83
2021/07/18 12:34:35;;;;;;;4.72;3.20;;;25.00;94.80;;;;;;5076660;28;20245;-83
2021/07/18 12:37:06;;;;;;;4.95;3.53;;;24.90;94.20;;;;;;5076427;28;20198;-84
2021/07/18 12:39:35;;;;;;;4.80;3.60;;;24.90;95.30;;;;;;5076617;28;20221;-84
2021/07/18 12:42:05;;;;;;;6.35;3.92;;;24.90;96.70;;;;;;5076288;28;20673;-84
2021/07/18 12:44:34;;;;;;;4.40;3.85;;;24.80;97.30;;;;;;5076548;28;20183;-83
2021/07/18 12:47:22;;;;;;;4.60;3.97;;;24.70;97.90;;;;;;5076444;28;20255;-83
2021/07/18 12:50:13;;;;;;;5.97;3.73;;;24.60;98.90;;;;;;5076364;28;20232;-83
2021/07/18 12:53:03;;;;;;;7.97;4.57;;;24.50;98.00;;;;;;5076431;28;20190;-83
2021/07/18 12:55:34;;;;;;;5.63;4.37;;;24.50;98.30;;;;;;5076315;28;20217;-83
2021/07/18 12:58:15;;;;;;;7.37;5.40;;;24.50;99.20;;;;;;5076308;28;20197;-85
2021/07/18 13:00:43;;;;;;;6.00;5.40;;;24.60;98.70;;;;;;5076431;28;20186;-85
2021/07/18 13:03:12;;;;;;;8.15;5.93;;;24.60;99.70;;;;;;5076203;28;20212;-85
2021/07/18 13:05:39;;;;;;;7.28;5.60;;;24.60;99.60;;;;;;5076159;28;20206;-84
2021/07/18 13:08:08;;;;;;;10.02;7.25;;;24.50;99.80;;;;;;5076041;28;20206;-83
2021/07/18 13:10:43;;;;;;;12.43;7.93;;;24.50;97.00;;;;;;5075689;28;20592;-83
2021/07/18 13:13:11;;;;;;;9.23;8.00;;;24.50;96.00;;;;;;5075667;28;20699;-83
2021/07/18 13:15:38;;;;;;;9.50;8.43;;;24.50;96.40;;;;;;5075864;28;20623;-83
2021/07/18 13:18:07;;;;;;;9.47;6.40;;;24.50;97.80;;;;;;5075744;28;20591;-84
2021/07/18 13:20:35;;;;;;;9.80;6.70;;;24.50;99.40;;;;;;5075741;28;20218;-83
2021/07/18 13:23:04;;;;;;;11.73;6.53;;;24.50;98.60;;;;;;5075778;28;20202;-83
2021/07/18 13:25:34;;;;;;;10.57;6.93;;;24.60;99.50;;;;;;5076467;28;20198;-84
2021/07/18 13:28:03;;;;;;;9.50;6.57;;;24.60;99.00;;;;;;5075704;28;20267;-83
2021/07/18 13:30:33;;;;;;;10.63;7.13;;;24.60;99.90;;;;;;5075235;28;20248;-85